Time;durP1;ratioP1;P1;durP2;ratioP2;P2;SDS_P1;SDS_P2;PMS_P1;PMS_P2;Temp;Humidity;BMP_temperature;BMP_pressure;BME280_temperature;BME280_humidity;BME280_pressure;Samples;Min_cycle;Max_cycle;Signal;HPM_P1;HPM_P2
2023/06/07 00:00:29;;;;;;;0.23;0.10;;;;;;;17.07;82.29;100748.00;4971887;28;20186;-76
2023/06/07 00:02:56;;;;;;;0.60;0.60;;;;;;;16.90;82.57;100749.06;4972036;28;20202;-75
2023/06/07 00:05:22;;;;;;;5.10;1.60;;;;;;;16.91;82.52;100750.66;4972276;28;20178;-76
2023/06/07 00:07:48;;;;;;;0.10;0.10;;;;;;;16.88;82.52;100760.44;4954678;28;20664;-76
2023/06/07 00:10:13;;;;;;;0.40;0.40;;;;;;;16.84;82.42;100747.69;4972210;28;20205;-76
2023/06/07 00:12:38;;;;;;;0.00;0.00;;;;;;;16.80;82.92;100752.31;4971948;28;20206;-76
2023/06/07 00:15:05;;;;;;;1.10;1.03;;;;;;;16.77;83.35;100761.25;4972302;28;20200;-76
2023/06/07 00:17:31;;;;;;;0.00;0.00;;;;;;;16.77;83.54;100752.97;4972112;28;20231;-74
2023/06/07 00:19:56;;;;;;;0.93;0.63;;;;;;;16.74;83.88;100761.94;4954299;28;20244;-76
2023/06/07 00:22:22;;;;;;;0.20;0.20;;;;;;;16.69;84.24;100759.44;4972041;28;20197;-76
2023/06/07 00:24:51;;;;;;;0.00;0.00;;;;;;;16.69;84.83;100762.19;4972147;28;20216;-75
2023/06/07 00:27:16;;;;;;;1.73;1.63;;;;;;;16.59;85.45;100763.41;4954524;28;20537;-75
2023/06/07 00:29:42;;;;;;;1.80;0.93;;;;;;;16.57;85.48;100763.75;4954219;28;20185;-76
2023/06/07 00:32:07;;;;;;;0.20;0.20;;;;;;;16.47;nan;100757.88;4971848;28;20200;-76
2023/06/07 00:34:32;;;;;;;0.20;0.17;;;;;;;16.48;85.89;100752.00;4971933;28;20186;-76
2023/06/07 00:36:58;;;;;;;0.37;0.37;;;;;;;16.50;85.69;100757.22;4971851;28;20181;-76
2023/06/07 00:39:24;;;;;;;0.30;0.20;;;;;;;16.43;85.52;100759.72;4971523;28;20212;-76
2023/06/07 00:41:52;;;;;;;0.00;0.00;;;;;;;16.46;85.58;100761.78;4958250;28;20190;-76
2023/06/07 00:44:18;;;;;;;1.20;1.03;;;;;;;16.45;85.07;100763.75;4975580;28;20221;-75
2023/06/07 00:46:44;;;;;;;0.80;0.80;;;;;;;16.34;85.10;100757.84;4975581;28;20593;-76
2023/06/07 00:49:11;;;;;;;0.37;0.37;;;;;;;16.35;85.27;100761.44;4975460;28;20174;-76
2023/06/07 00:51:36;;;;;;;0.00;0.00;;;;;;;16.38;85.14;100766.28;4975618;28;20256;-75
2023/06/07 00:54:05;;;;;;;0.73;0.73;;;;;;;16.23;84.85;100762.22;4975565;28;20788;-76
2023/06/07 00:56:31;;;;;;;1.70;1.60;;;;;;;16.15;85.37;100770.59;4975345;28;20225;-74
2023/06/07 00:58:57;;;;;;;0.50;0.50;;;;;;;16.18;85.75;100767.94;4957386;28;20226;-76
2023/06/07 01:01:22;;;;;;;0.40;0.40;;;;;;;16.17;85.49;100771.03;4957893;28;20185;-74
2023/06/07 01:03:48;;;;;;;0.50;0.50;;;;;;;16.11;85.23;100773.22;4974976;28;20292;-75
2023/06/07 01:06:13;;;;;;;0.87;0.87;;;;;;;16.12;85.20;100771.25;4957863;28;20269;-75
2023/06/07 01:08:39;;;;;;;0.20;0.20;;;;;;;16.13;85.46;100779.19;4974670;28;20228;-76
2023/06/07 01:11:06;;;;;;;0.20;0.20;;;;;;;16.11;85.46;100766.91;4975028;28;20232;-76
2023/06/07 01:13:31;;;;;;;0.30;0.30;;;;;;;16.12;85.63;100774.81;4975009;28;20209;-75
2023/06/07 01:15:58;;;;;;;0.67;0.67;;;;;;;16.05;86.05;100772.59;4957669;28;20193;-76
2023/06/07 01:18:27;;;;;;;0.10;0.10;;;;;;;16.00;86.18;100770.06;4974648;28;20197;-76
2023/06/07 01:20:56;;;;;;;0.00;0.00;;;;;;;16.10;86.25;100774.38;4974818;28;20672;-76
2023/06/07 01:23:29;;;;;;;1.40;1.30;;;;;;;16.11;86.40;100773.22;4975306;28;20201;-76
2023/06/07 01:25:58;;;;;;;0.77;0.77;;;;;;;16.08;87.12;100776.66;4975355;28;20593;-75
2023/06/07 01:28:25;;;;;;;0.20;0.20;;;;;;;15.94;86.98;100765.13;4974515;28;20472;-76
2023/06/07 01:30:52;;;;;;;0.57;0.43;;;;;;;15.85;87.97;100773.47;4957542;28;20566;-75
2023/06/07 01:33:19;;;;;;;0.23;0.23;;;;;;;15.68;88.89;100759.88;4957142;28;20227;-75
2023/06/07 01:35:46;;;;;;;0.30;0.30;;;;;;;15.65;90.05;100766.84;4974728;28;20260;-75
2023/06/07 01:38:13;;;;;;;0.37;0.33;;;;;;;15.64;90.78;100769.97;4974190;28;20635;-75
2023/06/07 01:40:39;;;;;;;0.03;0.03;;;;;;;15.67;90.92;100767.31;4974672;28;20671;-75
2023/06/07 01:43:05;;;;;;;0.27;0.27;;;;;;;15.65;90.24;100764.09;4974534;28;20202;-76
2023/06/07 01:45:31;;;;;;;0.30;0.30;;;;;;;15.55;90.78;100763.66;4957250;28;20248;-76
2023/06/07 01:47:57;;;;;;;0.33;0.33;;;;;;;15.57;90.89;100766.88;4957256;28;20285;-75
2023/06/07 01:50:22;;;;;;;0.57;0.57;;;;;;;15.57;91.11;100766.88;4974255;28;20209;-76
2023/06/07 01:52:47;;;;;;;0.50;0.50;;;;;;;15.52;91.84;100764.34;4973554;28;20596;-75
2023/06/07 01:55:13;;;;;;;0.17;0.17;;;;;;;15.50;92.08;100767.44;4974893;28;20261;-74
2023/06/07 01:58:22;;;;;;;0.47;0.47;;;;;;;15.55;92.15;100763.66;4974749;28;20209;-75
2023/06/07 02:00:50;;;;;;;0.80;0.80;;;;;;;15.48;92.21;100770.53;4974613;28;20276;-76
2023/06/07 02:03:41;;;;;;;1.53;0.83;;;;;;;15.41;92.70;100766.69;4974367;28;20198;-75
2023/06/07 02:06:11;;;;;;;1.37;1.37;;;;;;;15.44;93.49;100764.06;4957372;28;20184;-76
2023/06/07 02:08:43;;;;;;;0.73;0.73;;;;;;;15.25;94.47;100769.25;4974200;28;20190;-74
2023/06/07 02:11:10;;;;;;;1.20;1.10;;;;;;;15.22;96.04;100769.13;4956964;28;20186;-76
2023/06/07 02:13:40;;;;;;;0.10;0.10;;;;;;;15.16;97.07;100772.03;4956746;28;20715;-76
2023/06/07 02:16:06;;;;;;;1.07;1.07;;;;;;;15.15;97.98;100775.13;4974007;28;20209;-76
2023/06/07 02:18:36;;;;;;;1.07;1.03;;;;;;;15.15;98.14;100767.69;4973261;28;20626;-76
2023/06/07 02:21:02;;;;;;;0.83;0.83;;;;;;;15.18;99.04;100769.75;4974032;28;20178;-74
2023/06/07 02:23:28;;;;;;;0.50;0.50;;;;;;;15.08;99.63;100766.63;4973836;28;20786;-76
2023/06/07 02:25:53;;;;;;;0.73;0.73;;;;;;;14.98;100.00;100764.25;4956734;28;20191;-76
2023/06/07 02:28:18;;;;;;;0.83;0.43;;;;;;;14.97;100.00;100770.88;4973298;28;20178;-74
2023/06/07 02:30:44;;;;;;;0.30;0.30;;;;;;;14.93;100.00;100767.19;4973716;28;20578;-76
2023/06/07 02:33:13;;;;;;;0.37;0.30;;;;;;;14.92;100.00;100758.13;4973657;28;20206;-76
2023/06/07 02:35:45;;;;;;;2.00;1.40;;;;;;;14.93;100.00;100769.94;4973699;28;20268;-74
2023/06/07 02:38:10;;;;;;;0.90;0.83;;;;;;;14.77;100.00;100765.00;4956422;28;20202;-76
2023/06/07 02:40:35;;;;;;;0.73;0.73;;;;;;;14.69;100.00;100767.78;4956461;28;20208;-76
2023/06/07 02:43:01;;;;;;;0.07;0.07;;;;;;;14.67;100.00;100762.63;4973389;28;20205;-76
2023/06/07 02:45:26;;;;;;;0.60;0.60;;;;;;;14.65;100.00;100764.91;4973638;28;20181;-76
2023/06/07 02:47:53;;;;;;;1.53;1.43;;;;;;;14.64;100.00;100766.03;4973276;28;20553;-76
2023/06/07 02:50:18;;;;;;;1.17;1.00;;;;;;;14.55;100.00;100771.56;4972907;28;20727;-76
2023/06/07 02:52:44;;;;;;;0.63;0.63;;;;;;;14.57;100.00;100771.25;4955716;28;20234;-76
2023/06/07 02:55:09;;;;;;;0.87;0.87;;;;;;;14.57;100.00;100774.00;4955891;28;20233;-76
2023/06/07 02:57:35;;;;;;;0.63;0.63;;;;;;;14.50;100.00;100770.97;4973107;28;20312;-76
2023/06/07 03:00:01;;;;;;;1.47;1.13;;;;;;;14.43;100.00;100768.69;4972623;28;20205;-76
2023/06/07 03:02:27;;;;;;;0.50;0.50;;;;;;;14.34;100.00;100773.41;4953725;28;20700;-76
2023/06/07 03:04:52;;;;;;;5.47;2.10;;;;;;;14.29;100.00;100774.38;4971886;28;20261;-76
2023/06/07 03:07:20;;;;;;;0.80;0.70;;;;;;;14.24;100.00;100777.31;4972792;28;20192;-74
2023/06/07 03:09:47;;;;;;;1.60;1.33;;;;;;;14.20;100.00;100776.38;4972499;28;20206;-76
2023/06/07 03:12:12;;;;;;;1.03;0.93;;;;;;;14.19;100.00;100776.69;4955270;28;20264;-76
2023/06/07 03:14:38;;;;;;;0.53;0.53;;;;;;;14.21;100.00;100779.91;4955465;28;20185;-76
2023/06/07 03:17:04;;;;;;;0.37;0.30;;;;;;;14.29;100.00;100782.63;4972926;28;20660;-76
2023/06/07 03:19:29;;;;;;;0.00;0.00;;;;;;;14.40;100.00;100780.34;4972298;28;20609;-76
2023/06/07 03:21:55;;;;;;;0.20;0.20;;;;;;;14.41;100.00;100783.88;4972618;28;20273;-75
2023/06/07 03:24:20;;;;;;;0.63;0.60;;;;;;;14.43;100.00;100784.38;4972684;28;20255;-76
2023/06/07 03:26:45;;;;;;;0.10;0.10;;;;;;;14.35;100.00;100797.03;4972461;28;20188;-76
2023/06/07 03:29:11;;;;;;;0.00;0.00;;;;;;;14.30;100.00;100784.25;4954779;28;20589;-76
2023/06/07 03:31:36;;;;;;;0.40;0.40;;;;;;;14.32;100.00;100783.94;4955103;28;20186;-76
2023/06/07 03:34:02;;;;;;;0.57;0.57;;;;;;;14.29;100.00;100782.63;4954770;28;20614;-76
2023/06/07 03:36:29;;;;;;;0.63;0.63;;;;;;;14.29;100.00;100798.31;4972708;28;20651;-76
2023/06/07 03:38:58;;;;;;;0.53;0.53;;;;;;;14.32;100.00;100792.19;4954480;28;20293;-77
2023/06/07 03:41:25;;;;;;;0.40;0.33;;;;;;;14.24;100.00;100790.25;4972329;28;20173;-75
2023/06/07 03:43:50;;;;;;;0.20;0.20;;;;;;;14.20;100.00;100800.28;4972241;28;20199;-76
2023/06/07 03:46:16;;;;;;;0.30;0.30;;;;;;;14.18;100.00;100808.88;4972349;28;20648;-75
2023/06/07 03:48:41;;;;;;;0.20;0.20;;;;;;;14.16;100.00;100805.59;4954262;28;20189;-76
2023/06/07 03:51:06;;;;;;;5.53;1.73;;;;;;;14.21;100.00;100813.72;4972221;28;20262;-76
2023/06/07 03:53:32;;;;;;;0.07;0.07;;;;;;;14.10;100.00;100800.63;4972096;28;20696;-76
2023/06/07 03:55:58;;;;;;;2.70;0.90;;;;;;;14.06;100.00;100805.97;4971997;28;20189;-76
2023/06/07 03:58:24;;;;;;;0.63;0.63;;;;;;;14.08;100.00;100805.66;4971635;28;20568;-76
2023/06/07 04:00:51;;;;;;;9.93;2.47;;;;;;;14.00;100.00;100812.75;4954731;28;20279;-76
2023/06/07 04:03:17;;;;;;;1.60;1.50;;;;;;;13.94;100.00;100812.13;4971764;28;20225;-76
2023/06/07 04:05:42;;;;;;;0.40;0.40;;;;;;;13.90;100.00;100815.84;4971915;28;20232;-76
2023/06/07 04:08:09;;;;;;;0.20;0.20;;;;;;;13.80;100.00;100813.44;4971896;28;20185;-76
2023/06/07 04:10:35;;;;;;;0.33;0.33;;;;;;;13.83;100.00;100813.59;4954758;28;20189;-75
2023/06/07 04:13:00;;;;;;;0.20;0.20;;;;;;;13.70;100.00;100815.34;4971684;28;20565;-76
2023/06/07 04:15:25;;;;;;;0.00;0.00;;;;;;;13.76;100.00;100821.50;4973587;28;20668;-77
2023/06/07 04:17:51;;;;;;;0.60;0.60;;;;;;;13.69;100.00;100821.97;4975911;28;20194;-75
2023/06/07 04:20:16;;;;;;;0.40;0.20;;;;;;;13.64;100.00;100830.38;4975492;28;20210;-77
2023/06/07 04:22:42;;;;;;;0.20;0.20;;;;;;;13.62;100.00;100829.09;4975633;28;20224;-76
2023/06/07 04:25:08;;;;;;;0.30;0.30;;;;;;;13.61;100.00;100819.25;4958324;28;20185;-77
2023/06/07 04:27:34;;;;;;;0.00;0.00;;;;;;;13.56;100.00;100828.44;4975885;28;20546;-76
2023/06/07 04:30:02;;;;;;;1.10;0.77;;;;;;;13.59;100.00;100816.00;4958123;28;20201;-75
2023/06/07 04:32:33;;;;;;;0.07;0.07;;;;;;;13.46;100.00;100837.00;4975315;28;20213;-76
2023/06/07 04:34:59;;;;;;;0.70;0.70;;;;;;;13.47;100.00;100824.91;4958510;28;20192;-76
2023/06/07 04:37:24;;;;;;;0.17;0.17;;;;;;;13.46;100.00;100830.72;4975591;28;20174;-76
2023/06/07 04:39:51;;;;;;;0.57;0.57;;;;;;;13.51;100.00;100830.53;4975329;28;20622;-75
2023/06/07 04:42:17;;;;;;;0.83;0.83;;;;;;;13.32;100.00;100825.34;4975576;28;20201;-76
2023/06/07 04:44:43;;;;;;;1.23;1.20;;;;;;;13.36;100.00;100834.56;4975644;28;20181;-76
2023/06/07 04:47:09;;;;;;;0.27;0.27;;;;;;;13.29;100.00;100832.28;4975560;28;20188;-74
2023/06/07 04:49:38;;;;;;;0.73;0.63;;;;;;;13.29;100.00;100829.53;4957971;28;20178;-76
2023/06/07 04:52:05;;;;;;;2.67;2.47;;;;;;;13.23;100.00;100833.56;4967353;28;20178;-76
2023/06/07 04:54:32;;;;;;;1.33;1.33;;;;;;;13.11;100.00;100831.41;4975447;28;20722;-76
2023/06/07 04:56:57;;;;;;;0.23;0.23;;;;;;;13.21;100.00;100830.34;4975300;28;20194;-76
2023/06/07 04:59:24;;;;;;;0.40;0.40;;;;;;;13.18;100.00;100828.22;4974884;28;20207;-76
2023/06/07 05:01:50;;;;;;;0.03;0.03;;;;;;;13.24;100.00;100843.41;4957855;28;20190;-76
2023/06/07 05:04:16;;;;;;;0.60;0.57;;;;;;;13.28;100.00;100843.56;4957842;28;20198;-76
2023/06/07 05:06:42;;;;;;;1.83;1.73;;;;;;;13.29;100.00;100839.69;4974974;28;20313;-76
2023/06/07 05:09:08;;;;;;;1.67;0.93;;;;;;;13.24;100.00;100842.59;4974636;28;20256;-76
2023/06/07 05:11:33;;;;;;;1.00;0.93;;;;;;;13.14;100.00;100834.63;4974641;28;20246;-76
2023/06/07 05:13:59;;;;;;;1.50;1.40;;;;;;;13.09;100.00;100841.88;4957520;28;20253;-76
2023/06/07 05:16:24;;;;;;;0.00;0.00;;;;;;;13.09;100.00;100836.41;4975281;28;20189;-75
2023/06/07 05:18:50;;;;;;;1.30;1.20;;;;;;;13.15;100.00;100834.31;4974279;28;20202;-74
2023/06/07 05:21:16;;;;;;;1.50;1.50;;;;;;;13.14;100.00;100838.19;4975688;28;20193;-79
2023/06/07 05:23:42;;;;;;;1.93;1.20;;;;;;;13.17;100.00;100842.25;4976255;28;20233;-75
2023/06/07 05:26:08;;;;;;;1.87;1.70;;;;;;;13.18;100.00;100838.38;4975749;28;20241;-75
2023/06/07 05:28:34;;;;;;;1.17;1.17;;;;;;;13.19;100.00;100837.28;4974387;28;20265;-76
2023/06/07 05:30:59;;;;;;;0.73;0.73;;;;;;;13.15;100.00;100834.31;4974640;28;20182;-76
2023/06/07 05:33:25;;;;;;;3.43;3.23;;;;;;;13.14;100.00;100831.88;4967009;28;20228;-75
2023/06/07 05:35:51;;;;;;;0.50;0.50;;;;;;;13.10;100.00;100832.53;4957043;28;20264;-74
2023/06/07 05:38:16;;;;;;;1.93;1.83;;;;;;;13.09;100.00;100836.41;4974006;28;22134;-76
2023/06/07 05:40:41;;;;;;;2.10;2.00;;;;;;;13.10;100.00;100834.47;4974549;28;20183;-76
2023/06/07 05:43:07;;;;;;;1.10;1.00;;;;;;;13.16;100.00;100838.66;4956968;28;20706;-75
2023/06/07 05:45:32;;;;;;;1.70;1.60;;;;;;;13.16;100.00;100833.16;4974458;28;20186;-76
2023/06/07 05:47:57;;;;;;;0.13;0.13;;;;;;;13.19;100.00;100838.06;4956931;28;20208;-76
2023/06/07 05:50:23;;;;;;;0.47;0.47;;;;;;;13.27;100.00;100839.22;4956627;28;20200;-76
2023/06/07 05:52:56;;;;;;;0.97;0.93;;;;;;;13.23;100.00;100836.31;4957009;28;20202;-75
2023/06/07 05:55:23;;;;;;;2.00;1.83;;;;;;;13.18;100.00;100838.38;4974567;28;20185;-76
2023/06/07 05:57:49;;;;;;;3.30;2.93;;;;;;;13.18;100.00;100835.63;4974450;28;20213;-76
2023/06/07 06:00:16;;;;;;;0.10;0.10;;;;;;;13.17;100.00;100840.31;4973909;28;20206;-76
2023/06/07 06:02:45;;;;;;;1.80;1.70;;;;;;;13.22;100.00;100839.38;4973931;28;20237;-76
2023/06/07 06:05:11;;;;;;;0.20;0.20;;;;;;;13.24;100.00;100846.16;4956342;28;20192;-76
2023/06/07 06:07:36;;;;;;;1.10;1.10;;;;;;;13.25;100.00;100850.50;4974080;28;20190;-76
2023/06/07 06:10:04;;;;;;;0.87;0.87;;;;;;;13.31;100.00;100854.75;4974175;28;20218;-75
2023/06/07 06:12:30;;;;;;;1.23;1.23;;;;;;;13.38;100.00;100859.75;4974497;28;20236;-76
2023/06/07 06:17:39;;;;;;;1.07;1.07;;;;;;;13.60;100.00;100861.56;4973918;28;20251;-76
2023/06/07 06:20:04;;;;;;;0.67;0.67;;;;;;;13.61;100.00;100860.44;4973591;28;20206;-76
2023/06/07 06:22:30;;;;;;;1.97;1.87;;;;;;;13.65;100.00;100859.47;4973830;28;20567;-74
2023/06/07 06:24:55;;;;;;;3.73;2.20;;;;;;;13.61;100.00;100858.50;4973961;28;20213;-77
2023/06/07 06:27:20;;;;;;;1.43;1.27;;;;;;;13.64;100.00;100865.28;4973787;28;20302;-76
2023/06/07 06:29:46;;;;;;;6.23;3.80;;;;;;;13.58;100.00;100861.06;4973087;28;20641;-76
2023/06/07 06:32:11;;;;;;;0.00;0.00;;;;;;;13.64;100.00;100863.34;4973416;28;20304;-76
2023/06/07 06:34:37;;;;;;;2.70;2.50;;;;;;;13.67;100.00;100868.19;4973748;28;20178;-75
2023/06/07 06:37:04;;;;;;;2.47;2.37;;;;;;;13.72;100.00;100860.91;4973740;28;20186;-76
2023/06/07 06:39:30;;;;;;;1.70;1.70;;;;;;;13.74;100.00;100873.19;4973009;28;20214;-76
2023/06/07 06:41:55;;;;;;;2.03;1.90;;;;;;;13.71;100.00;100871.09;4973289;28;20679;-75
2023/06/07 06:44:20;;;;;;;0.00;0.00;;;;;;;13.76;100.00;100883.88;4955971;28;20190;-77
2023/06/07 06:46:45;;;;;;;7.83;2.90;;;;;;;13.86;100.00;100873.34;4955956;28;20197;-76
2023/06/07 06:49:11;;;;;;;1.43;1.33;;;;;;;13.86;100.00;100876.09;4955618;28;20618;-76
2023/06/07 06:51:36;;;;;;;2.67;1.17;;;;;;;14.00;100.00;100876.75;4973115;28;20189;-77
2023/06/07 06:54:02;;;;;;;0.73;0.73;;;;;;;14.02;100.00;100868.19;4956258;28;20742;-80
2023/06/07 06:56:27;;;;;;;2.20;2.10;;;;;;;14.12;100.00;100869.81;4975036;28;20197;-79
2023/06/07 06:59:01;;;;;;;0.40;0.40;;;;;;;14.26;100.00;100878.69;4957221;28;20233;-84
2023/06/07 07:01:42;;;;;;;0.77;0.77;;;;;;;14.35;100.00;100884.16;4974411;28;20189;-76
2023/06/07 07:04:07;;;;;;;2.73;2.53;;;;;;;14.37;100.00;100884.66;4974596;28;20204;-80
2023/06/07 07:06:32;;;;;;;3.57;1.03;;;;;;;14.45;100.00;100881.09;4974684;28;20177;-77
2023/06/07 07:08:58;;;;;;;0.60;0.60;;;;;;;14.52;100.00;100873.97;4957710;28;20182;-77
2023/06/07 07:11:23;;;;;;;1.43;1.27;;;;;;;14.47;100.00;100876.91;4957212;28;20188;-83
2023/06/07 07:13:48;;;;;;;0.00;0.00;;;;;;;14.54;100.00;100890.94;4974251;28;20202;-77
2023/06/07 07:16:16;;;;;;;0.03;0.03;;;;;;;14.59;100.00;100881.72;4975367;28;20261;-77
2023/06/07 07:18:41;;;;;;;13.53;2.70;;;;;;;14.69;100.00;100884.13;4975093;28;20202;-77
2023/06/07 07:21:06;;;;;;;2.27;2.10;;;;;;;14.65;100.00;100882.34;4975759;28;20268;-77
2023/06/07 07:23:32;;;;;;;0.90;0.90;;;;;;;14.77;100.00;100891.53;4958044;28;20531;-77
2023/06/07 07:25:57;;;;;;;0.23;0.23;;;;;;;14.79;100.00;100883.78;4975155;28;20225;-76
2023/06/07 07:28:22;;;;;;;5.67;3.63;;;;;;;14.94;100.00;100887.13;4974766;28;20178;-77
2023/06/07 07:30:48;;;;;;;1.60;1.50;;;;;;;14.96;100.00;100884.84;4975085;28;20602;-77
2023/06/07 07:33:13;;;;;;;5.93;2.43;;;;;;;15.05;100.00;100885.63;4957614;28;20213;-75
2023/06/07 07:35:38;;;;;;;0.90;0.90;;;;;;;15.13;100.00;100890.25;4974351;28;20253;-76
2023/06/07 07:38:05;;;;;;;0.13;0.13;;;;;;;15.26;100.00;100891.19;4956261;28;20201;-77
2023/06/07 07:40:30;;;;;;;1.53;1.50;;;;;;;15.35;100.00;100891.94;4974271;28;20244;-76
2023/06/07 07:42:57;;;;;;;0.40;0.40;;;;;;;15.34;100.00;100896.66;4977605;28;20202;-78
2023/06/07 07:45:22;;;;;;;0.03;0.03;;;;;;;15.44;100.00;100899.00;4979097;28;20593;-78
2023/06/07 07:47:47;;;;;;;1.30;1.20;;;;;;;15.46;100.00;100893.16;4978138;28;20186;-77
2023/06/07 07:50:15;;;;;;;0.23;0.23;;;;;;;15.57;100.00;100905.41;4977520;28;20374;-78
2023/06/07 07:52:41;;;;;;;0.00;0.00;;;;;;;15.60;100.00;100893.75;4961440;28;20202;-78
2023/06/07 07:55:07;;;;;;;0.00;0.00;;;;;;;15.69;100.00;100899.22;4953557;28;20220;-76
2023/06/07 07:57:32;;;;;;;0.00;0.00;;;;;;;15.73;100.00;100900.16;4979245;28;20178;-78
2023/06/07 07:59:58;;;;;;;2.23;0.67;;;;;;;15.94;100.00;100908.44;4970404;28;20210;-78
2023/06/07 08:02:23;;;;;;;0.00;0.00;;;;;;;16.15;100.00;100909.22;4978232;28;20290;-78
2023/06/07 08:04:48;;;;;;;0.40;0.40;;;;;;;16.20;100.00;100899.94;4978254;28;20181;-77
2023/06/07 08:07:17;;;;;;;0.63;0.63;;;;;;;16.22;100.00;100906.75;4955505;29;20182;-78
2023/06/07 08:09:42;;;;;;;1.03;1.03;;;;;;;15.86;100.00;100907.34;4974080;28;20200;-77
2023/06/07 08:12:08;;;;;;;0.90;0.87;;;;;;;15.82;100.00;100900.09;4976200;28;20186;-77
2023/06/07 08:14:33;;;;;;;0.00;0.00;;;;;;;16.19;100.00;100898.31;4977277;28;20177;-77
2023/06/07 08:16:59;;;;;;;0.23;0.23;;;;;;;16.45;100.00;100906.34;4969324;28;20178;-78
2023/06/07 08:19:26;;;;;;;0.90;0.90;;;;;;;16.39;100.00;100897.50;4969006;28;20284;-77
2023/06/07 08:21:51;;;;;;;0.00;0.00;;;;;;;16.47;100.00;100904.06;4967447;28;20181;-76
2023/06/07 08:24:17;;;;;;;1.00;0.67;;;;;;;16.43;100.00;100903.94;4975734;28;20285;-78
2023/06/07 08:26:45;;;;;;;0.00;0.00;;;;;;;16.56;100.00;100896.50;4956748;28;20690;-76
2023/06/07 08:29:10;;;;;;;1.73;1.60;;;;;;;16.61;100.00;100902.59;4970883;28;20188;-76
2023/06/07 08:31:41;;;;;;;0.73;0.73;;;;;;;16.82;100.00;100899.84;4963990;28;20643;-76
2023/06/07 08:34:06;;;;;;;0.00;0.00;;;;;;;17.07;100.00;100900.69;4955736;28;20319;-76
2023/06/07 08:36:32;;;;;;;0.00;0.00;;;;;;;17.09;100.00;100895.63;4956072;28;20224;-76
2023/06/07 08:38:57;;;;;;;0.20;0.20;;;;;;;16.94;100.00;100896.28;4972600;28;20646;-77
2023/06/07 08:41:22;;;;;;;2.23;1.50;;;;;;;16.98;100.00;100904.69;4972822;28;20186;-76
2023/06/07 08:43:49;;;;;;;9.57;8.60;;;;;;;16.99;100.00;100900.78;4973063;28;20213;-77
2023/06/07 08:46:16;;;;;;;1.03;1.03;;;;;;;16.82;100.00;100901.78;4972810;28;20190;-78
2023/06/07 08:48:42;;;;;;;0.00;0.00;;;;;;;17.15;100.00;100896.97;4972634;28;20182;-76
2023/06/07 08:51:10;;;;;;;0.63;0.63;;;;;;;17.14;100.00;100894.56;4973274;28;20186;-76
2023/06/07 08:54:00;;;;;;;0.60;0.20;;;;;;;17.27;100.00;100903.66;4955695;28;20329;-77
2023/06/07 08:56:28;;;;;;;2.90;1.53;;;;;;;17.07;100.00;100902.59;4967664;28;20221;-77
2023/06/07 08:58:54;;;;;;;0.77;0.77;;;;;;;16.86;100.00;100902.72;4972327;28;20217;-77
2023/06/07 09:01:23;;;;;;;1.10;1.00;;;;;;;17.06;100.00;100906.50;4974383;28;20272;-77
2023/06/07 09:03:51;;;;;;;0.83;0.77;;;;;;;17.12;100.00;100905.16;4977087;28;20288;-80
2023/06/07 09:06:18;;;;;;;0.47;0.47;;;;;;;17.52;100.00;100916.31;4959712;28;20636;-76
2023/06/07 09:08:43;;;;;;;3.67;3.07;;;;;;;17.25;100.00;100906.78;4976220;28;20182;-75
2023/06/07 09:11:08;;;;;;;0.10;0.10;;;;;;;17.32;100.00;100908.94;4976534;28;20264;-77
2023/06/07 09:13:34;;;;;;;1.20;1.10;;;;;;;17.46;100.00;100915.72;4977214;28;20264;-76
2023/06/07 09:16:00;;;;;;;3.47;3.27;;;;;;;17.79;100.00;100915.63;4976906;28;20189;-78
2023/06/07 09:18:47;;;;;;;0.00;0.00;;;;;;;17.98;100.00;100916.97;4976600;28;20209;-76
2023/06/07 09:21:26;;;;;;;0.60;0.60;;;;;;;17.96;100.00;100911.78;4976981;28;20186;-77
2023/06/07 09:23:53;;;;;;;0.30;0.30;;;;;;;18.10;100.00;100905.88;4976617;28;20209;-77
2023/06/07 09:26:22;;;;;;;1.33;1.30;;;;;;;18.17;100.00;100908.81;4976590;28;20193;-76
2023/06/07 09:28:48;;;;;;;0.53;0.53;;;;;;;18.05;99.30;100906.09;4976008;28;20228;-77
2023/06/07 09:31:28;;;;;;;0.00;0.00;;;;;;;18.16;99.77;100909.97;4976736;28;20193;-77
2023/06/07 09:33:54;;;;;;;1.77;1.53;;;;;;;18.21;99.14;100904.19;4959276;28;20255;-77
2023/06/07 09:36:20;;;;;;;0.07;0.07;;;;;;;18.21;97.50;100906.16;4977870;28;20249;-77
2023/06/07 09:38:45;;;;;;;0.10;0.10;;;;;;;17.91;97.12;100898.19;4976588;28;20206;-77
2023/06/07 09:41:11;;;;;;;0.73;0.73;;;;;;;17.71;98.42;100904.69;4960196;28;20181;-77
2023/06/07 09:43:55;;;;;;;3.67;3.43;;;;;;;18.02;99.74;100899.31;4960262;28;20229;-77
2023/06/07 09:46:21;;;;;;;5.33;4.67;;;;;;;18.20;99.40;100902.59;4978500;28;20181;-78
2023/06/07 09:48:52;;;;;;;0.97;0.97;;;;;;;18.27;99.77;100908.34;4977178;28;20189;-77
2023/06/07 09:51:19;;;;;;;1.23;1.23;;;;;;;18.23;97.56;100903.88;4977569;28;20651;-77
2023/06/07 09:53:52;;;;;;;3.90;1.93;;;;;;;18.25;97.64;100898.78;4965718;28;20213;-77
2023/06/07 09:56:21;;;;;;;0.00;0.00;;;;;;;18.50;98.19;100911.34;4977986;28;20193;-77
2023/06/07 09:59:07;;;;;;;0.00;0.00;;;;;;;18.54;96.25;100909.50;4970854;28;20272;-78
2023/06/07 10:01:43;;;;;;;0.00;0.00;;;;;;;18.63;96.64;100917.59;4977831;28;20192;-77
2023/06/07 10:04:09;;;;;;;0.70;0.70;;;;;;;18.80;97.46;100917.31;4959315;28;20252;-76
2023/06/07 10:06:41;;;;;;;2.00;1.90;;;;;;;18.57;94.86;100911.53;4978713;28;20194;-77
2023/06/07 10:09:07;;;;;;;0.37;0.37;;;;;;;18.59;94.36;100908.41;4971571;28;20278;-78
2023/06/07 10:11:36;;;;;;;0.07;0.07;;;;;;;18.67;94.22;100910.25;4977574;28;20189;-78
2023/06/07 10:14:10;;;;;;;0.00;0.00;;;;;;;18.54;94.21;100912.25;4954099;28;20260;-78
2023/06/07 10:16:37;;;;;;;1.07;1.03;;;;;;;18.78;94.94;100913.28;4959716;28;20181;-76
2023/06/07 10:19:23;;;;;;;2.00;1.90;;;;;;;18.80;92.96;100908.19;4954633;28;20620;-76
2023/06/07 10:21:50;;;;;;;0.60;0.60;;;;;;;18.71;93.07;100905.63;4960337;28;20201;-76
2023/06/07 10:24:46;;;;;;;7.80;4.70;;;;;;;18.84;92.11;100892.50;4973119;28;20233;-77
2023/06/07 10:27:17;;;;;;;10.13;2.23;;;;;;;18.86;91.94;100896.53;4976982;28;20225;-76
2023/06/07 10:29:53;;;;;;;5.07;1.50;;;;;;;18.43;91.42;100891.78;4961838;28;20181;-78
2023/06/07 10:32:25;;;;;;;0.00;0.00;;;;;;;18.81;92.16;100893.22;4960629;28;20216;-76
2023/06/07 10:34:54;;;;;;;0.27;0.27;;;;;;;18.99;92.29;100897.25;4979056;28;20182;-75
2023/06/07 10:37:20;;;;;;;0.23;0.23;;;;;;;18.99;91.80;100894.47;4979481;28;20181;-78
2023/06/07 10:39:46;;;;;;;1.33;1.03;;;;;;;18.82;89.87;100887.31;4979580;28;20699;-77
2023/06/07 10:42:12;;;;;;;7.83;7.53;;;;;;;19.09;90.78;100885.59;4978777;28;20269;-78
2023/06/07 10:44:38;;;;;;;1.43;0.93;;;;;;;19.28;90.51;100880.16;4962249;28;20182;-78
2023/06/07 10:47:21;;;;;;;0.87;0.67;;;;;;;19.35;88.76;100887.81;4980272;28;20549;-77
2023/06/07 10:49:47;;;;;;;19.80;2.13;;;;;;;19.49;88.14;100884.59;4961957;28;20186;-78
2023/06/07 10:52:15;;;;;;;0.30;0.30;;;;;;;19.68;87.43;100878.31;4980154;28;20205;-78
2023/06/07 10:54:41;;;;;;;0.37;0.37;;;;;;;19.83;87.89;100881.03;4979443;28;20675;-79
2023/06/07 10:57:07;;;;;;;0.00;0.00;;;;;;;19.82;86.65;100882.22;4979559;28;20178;-78
2023/06/07 10:59:34;;;;;;;0.80;0.80;;;;;;;19.58;85.68;100880.50;4979035;28;20734;-78
2023/06/07 11:02:18;;;;;;;0.20;0.20;;;;;;;19.59;85.22;100873.78;4960564;28;20214;-78
2023/06/07 11:04:56;;;;;;;0.00;0.00;;;;;;;19.48;85.05;100872.69;4960984;28;20609;-78
2023/06/07 11:07:27;;;;;;;0.03;0.00;;;;;;;19.45;86.26;100883.69;4959385;28;20209;-78
2023/06/07 11:10:02;;;;;;;0.73;0.73;;;;;;;19.57;85.92;100878.88;4976025;28;20185;-76
2023/06/07 11:12:46;;;;;;;0.00;0.00;;;;;;;19.72;86.74;100876.44;4978029;28;20230;-79
2023/06/07 11:15:17;;;;;;;8.97;1.90;;;;;;;19.91;85.54;100873.66;4954732;28;20190;-77
2023/06/07 11:17:53;;;;;;;0.63;0.63;;;;;;;20.06;84.48;100881.13;4973571;28;20199;-78
2023/06/07 11:20:51;;;;;;;1.53;1.43;;;;;;;20.04;82.72;100864.03;4974820;28;20206;-77
2023/06/07 11:23:25;;;;;;;0.10;0.10;;;;;;;20.05;83.15;100873.16;4944321;28;20225;-78